createdAt,value
2024-01-09T00:00:48.684Z,47.21
2024-01-09T00:03:51.401Z,46.23
2024-01-09T00:06:53.916Z,46.16
2024-01-09T00:09:56.715Z,46.22
2024-01-09T00:12:59.629Z,45.90
2024-01-09T00:16:02.314Z,45.53
2024-01-09T00:19:04.932Z,45.28
2024-01-09T00:22:07.698Z,45.27
2024-01-09T00:25:10.484Z,45.81
2024-01-09T00:28:13.185Z,45.18
2024-01-09T00:31:15.804Z,45.00
2024-01-09T00:34:18.863Z,44.75
2024-01-09T00:37:21.813Z,44.64
2024-01-09T00:40:24.753Z,44.25
2024-01-09T00:43:27.143Z,44.09
2024-01-09T00:46:30.130Z,44.00
2024-01-09T00:49:32.689Z,43.90
2024-01-09T00:52:35.608Z,43.45
2024-01-09T00:55:38.060Z,43.82
2024-01-09T00:58:40.793Z,42.91
2024-01-09T01:01:43.295Z,43.33
2024-01-09T01:04:46.326Z,43.04
2024-01-09T01:07:48.805Z,42.93
2024-01-09T01:10:51.502Z,42.91
2024-01-09T01:13:54.273Z,43.08
2024-01-09T01:16:56.869Z,42.74
2024-01-09T01:19:59.378Z,42.91
2024-01-09T01:23:01.981Z,42.75
2024-01-09T01:26:04.579Z,42.43
2024-01-09T01:29:07.362Z,42.38
2024-01-09T01:32:11.514Z,41.78
2024-01-09T01:35:14.528Z,42.20
2024-01-09T01:38:17.610Z,41.63
2024-01-09T01:41:20.394Z,41.71
2024-01-09T01:44:23.732Z,41.36
2024-01-09T01:47:26.945Z,41.08
2024-01-09T01:50:31.968Z,40.41
2024-01-09T01:53:35.469Z,40.54
2024-01-09T01:56:38.451Z,40.12
2024-01-09T01:59:46.223Z,40.36
2024-01-09T02:02:52.124Z,40.58
2024-01-09T02:05:56.953Z,40.17
2024-01-09T02:08:59.998Z,40.44
2024-01-09T02:12:02.564Z,40.11
2024-01-09T02:15:06.090Z,39.76
2024-01-09T02:18:09.290Z,39.96
2024-01-09T02:21:11.911Z,40.03
2024-01-09T02:24:14.499Z,39.93
2024-01-09T02:27:25.069Z,40.18
2024-01-09T02:30:28.609Z,40.07
2024-01-09T02:33:33.052Z,39.75
2024-01-09T02:36:35.718Z,40.11
2024-01-09T02:39:38.378Z,40.06
2024-01-09T02:42:40.996Z,40.07
2024-01-09T02:45:43.682Z,39.76
2024-01-09T02:48:46.441Z,39.49
2024-01-09T02:51:48.910Z,39.44
2024-01-09T02:54:51.588Z,39.84
2024-01-09T02:57:53.990Z,40.96
2024-01-09T03:00:57.019Z,41.08
2024-01-09T03:03:59.616Z,42.20
2024-01-09T03:07:02.399Z,42.60
2024-01-09T03:10:05.407Z,42.48
2024-01-09T03:13:08.094Z,43.12
2024-01-09T03:16:12.494Z,43.14
2024-01-09T03:19:15.612Z,42.64
2024-01-09T03:22:18.061Z,42.15
2024-01-09T03:25:20.822Z,42.07
2024-01-09T03:28:23.281Z,42.27
2024-01-09T03:31:26.119Z,42.50
2024-01-09T03:34:28.580Z,42.28
2024-01-09T03:37:31.189Z,41.88
2024-01-09T03:40:34.656Z,42.11
2024-01-09T03:43:37.585Z,41.34
2024-01-09T03:46:40.060Z,41.56
2024-01-09T03:49:42.664Z,41.17
2024-01-09T03:52:45.091Z,41.54
2024-01-09T03:55:47.810Z,41.88
2024-01-09T03:58:50.222Z,41.33
2024-01-09T04:01:52.906Z,41.59
2024-01-09T04:04:55.696Z,41.82
2024-01-09T04:07:58.127Z,42.07
2024-01-09T04:11:04.349Z,42.35
2024-01-09T04:14:06.739Z,42.03
2024-01-09T04:17:09.530Z,42.51
2024-01-09T04:20:13.356Z,42.71
2024-01-09T04:23:19.058Z,42.86
2024-01-09T04:26:21.437Z,42.86
2024-01-09T04:29:24.898Z,42.72
2024-01-09T04:32:27.407Z,42.59
2024-01-09T04:35:30.194Z,42.47
2024-01-09T04:38:32.574Z,42.62
2024-01-09T04:41:35.424Z,41.47
2024-01-09T04:44:37.817Z,41.50
2024-01-09T04:47:40.640Z,41.15
2024-01-09T04:50:43.124Z,41.07
2024-01-09T04:53:46.087Z,40.92
2024-01-09T04:56:48.738Z,40.86
2024-01-09T04:59:51.490Z,41.14
2024-01-09T05:02:54.604Z,40.95
2024-01-09T05:05:57.674Z,40.19
2024-01-09T05:09:00.289Z,40.03
2024-01-09T05:12:03.470Z,39.92
2024-01-09T05:15:06.530Z,40.17
2024-01-09T05:18:09.389Z,40.33
2024-01-09T05:21:11.926Z,40.08
2024-01-09T05:24:14.584Z,39.98
2024-01-09T05:27:17.007Z,40.07
2024-01-09T05:30:19.936Z,40.21
2024-01-09T05:33:22.549Z,40.04
2024-01-09T05:36:26.128Z,39.99
2024-01-09T05:39:28.619Z,39.64
2024-01-09T05:42:31.933Z,39.85
2024-01-09T05:45:34.433Z,39.83
2024-01-09T05:48:37.311Z,40.33
2024-01-09T05:51:39.819Z,40.74
2024-01-09T05:54:47.244Z,39.69
2024-01-09T05:57:51.353Z,40.26
2024-01-09T06:00:54.066Z,40.19
2024-01-09T06:03:56.868Z,41.17
2024-01-09T06:07:00.369Z,40.62
2024-01-09T06:10:04.466Z,40.53
2024-01-09T06:13:07.117Z,40.43
2024-01-09T06:16:09.950Z,40.24
2024-01-09T06:19:12.898Z,40.64
2024-01-09T06:22:15.649Z,40.33
2024-01-09T06:25:18.025Z,40.31
2024-01-09T06:28:21.652Z,40.12
2024-01-09T06:31:24.007Z,40.12
2024-01-09T06:34:26.798Z,40.28
2024-01-09T06:37:29.369Z,40.73
2024-01-09T06:40:32.073Z,40.71
2024-01-09T06:43:34.569Z,40.74
2024-01-09T06:46:37.526Z,41.06
2024-01-09T06:49:39.883Z,40.63
2024-01-09T06:52:42.845Z,40.84
2024-01-09T06:55:47.797Z,41.76
2024-01-09T06:58:53.180Z,40.73
2024-01-09T07:01:56.399Z,41.00
2024-01-09T07:05:00.177Z,40.84
2024-01-09T07:08:04.198Z,40.85
2024-01-09T07:11:07.156Z,41.17
2024-01-09T07:14:13.265Z,41.29
2024-01-09T07:17:17.157Z,41.01
2024-01-09T07:20:19.604Z,41.51
2024-01-09T07:23:22.508Z,42.17
2024-01-09T07:26:24.874Z,42.13
2024-01-09T07:29:27.821Z,42.09
2024-01-09T07:32:30.461Z,41.94
2024-01-09T07:35:35.935Z,42.68
2024-01-09T07:38:39.476Z,40.79
2024-01-09T07:41:42.378Z,41.39
2024-01-09T07:44:45.908Z,41.05
2024-01-09T07:47:48.966Z,41.19
2024-01-09T07:50:51.594Z,46.45
2024-01-09T07:53:54.484Z,41.02
2024-01-09T07:56:57.731Z,41.28
2024-01-09T08:00:01.649Z,41.12
2024-01-09T08:03:22.009Z,39.89
2024-01-09T08:06:26.048Z,40.44
2024-01-09T08:09:28.567Z,39.51
2024-01-09T08:12:33.917Z,39.45
2024-01-09T08:15:36.524Z,42.95
2024-01-09T08:18:39.511Z,40.09
2024-01-09T08:21:43.003Z,39.42
2024-01-09T08:24:45.865Z,39.46
2024-01-09T08:27:48.382Z,38.89
2024-01-09T08:30:51.168Z,39.41
2024-01-09T08:33:53.811Z,39.31
2024-01-09T08:36:56.742Z,40.98
2024-01-09T08:40:02.416Z,39.49
2024-01-09T08:43:05.417Z,40.95
2024-01-09T08:46:08.280Z,43.75
2024-01-09T08:49:12.286Z,38.63
2024-01-09T08:52:14.816Z,40.58
2024-01-09T08:55:17.501Z,38.79
2024-01-09T08:58:19.908Z,39.60
2024-01-09T09:01:22.982Z,38.50
2024-01-09T09:04:25.493Z,39.17
2024-01-09T09:07:28.162Z,39.62
2024-01-09T09:10:30.669Z,38.53
2024-01-09T09:13:33.377Z,39.33
2024-01-09T09:16:37.685Z,40.67
2024-01-09T09:19:41.315Z,39.18
2024-01-09T09:22:43.870Z,39.46
2024-01-09T09:25:46.621Z,39.34
2024-01-09T09:29:00.238Z,39.31
2024-01-09T09:32:09.446Z,39.81
2024-01-09T09:35:11.849Z,39.54
2024-01-09T09:38:15.200Z,39.01
2024-01-09T09:41:20.791Z,37.97
2024-01-09T09:44:25.658Z,36.40
2024-01-09T09:47:29.084Z,36.64
2024-01-09T09:50:34.084Z,38.22
2024-01-09T09:53:37.188Z,35.28
2024-01-09T09:56:43.627Z,34.75
2024-01-09T09:59:46.423Z,36.05
2024-01-09T10:02:50.887Z,36.82
2024-01-09T10:05:56.252Z,34.98
2024-01-09T10:09:02.967Z,34.73
2024-01-09T10:12:05.925Z,35.06
2024-01-09T10:15:10.893Z,34.48
2024-01-09T10:18:14.001Z,33.13
2024-01-09T10:21:18.239Z,32.84
2024-01-09T10:24:24.019Z,33.24
2024-01-09T10:27:29.159Z,32.85
2024-01-09T10:30:34.583Z,32.48
2024-01-09T10:33:43.524Z,30.95
2024-01-09T10:36:46.650Z,31.69
2024-01-09T10:39:51.341Z,29.73
2024-01-09T10:42:54.008Z,28.01
2024-01-09T10:46:01.214Z,27.56
2024-01-09T10:49:07.814Z,30.38
2024-01-09T10:52:15.329Z,30.68
2024-01-09T10:55:22.002Z,28.92
2024-01-09T10:58:25.066Z,27.98
2024-01-09T11:01:27.871Z,26.23
2024-01-09T11:04:30.465Z,25.32
2024-01-09T11:07:37.027Z,25.14
2024-01-09T11:10:41.707Z,25.66
2024-01-09T11:13:47.717Z,23.83
2024-01-09T11:16:50.792Z,25.05
2024-01-09T11:19:53.568Z,24.54
2024-01-09T11:22:56.287Z,25.47
2024-01-09T11:26:00.614Z,24.10
2024-01-09T11:29:03.769Z,26.86
2024-01-09T11:32:06.731Z,28.33
2024-01-09T11:35:11.370Z,28.17
2024-01-09T11:38:15.438Z,28.76
2024-01-09T11:41:18.734Z,28.67
2024-01-09T11:44:21.710Z,28.69
2024-01-09T11:47:24.803Z,29.33
2024-01-09T11:50:27.683Z,31.08
2024-01-09T11:53:30.355Z,32.51
2024-01-09T11:56:33.776Z,31.76
2024-01-09T11:59:36.980Z,31.42
2024-01-09T12:02:40.168Z,31.27
2024-01-09T12:05:42.838Z,31.96
2024-01-09T12:08:45.882Z,32.09
2024-01-09T12:11:48.664Z,31.78
2024-01-09T12:14:55.580Z,32.51
2024-01-09T12:17:59.508Z,31.61
2024-01-09T12:21:02.571Z,31.98
2024-01-09T12:24:21.299Z,32.02
2024-01-09T12:27:27.788Z,32.49
2024-01-09T12:30:35.643Z,32.21
2024-01-09T12:33:39.328Z,32.52
2024-01-09T12:36:42.343Z,31.49
2024-01-09T12:39:45.307Z,31.51
2024-01-09T12:43:07.571Z,30.56
2024-01-09T12:46:10.143Z,28.79
2024-01-09T12:49:13.852Z,29.83
2024-01-09T12:52:20.218Z,30.00
2024-01-09T12:55:23.189Z,29.94
2024-01-09T12:58:25.815Z,30.37
2024-01-09T13:01:31.778Z,30.41
2024-01-09T13:04:36.494Z,32.03
2024-01-09T13:07:39.532Z,32.52
2024-01-09T13:10:42.407Z,32.84
2024-01-09T13:13:45.903Z,33.30
2024-01-09T13:16:52.677Z,33.51
2024-01-09T13:19:56.388Z,35.05
2024-01-09T13:26:05.473Z,36.55
2024-01-09T13:32:15.060Z,37.73
2024-01-09T13:35:20.708Z,36.27
2024-01-09T13:38:23.755Z,36.43
2024-01-09T13:41:31.856Z,36.19
2024-01-09T13:44:36.129Z,36.19
2024-01-09T13:47:41.860Z,35.87
2024-01-09T13:51:49.128Z,36.00
2024-01-09T13:54:08.701Z,36.49
2024-01-09T13:57:14.310Z,36.68
2024-01-09T14:00:17.908Z,36.20
2024-01-09T14:03:23.008Z,36.71
2024-01-09T14:06:31.196Z,36.58
2024-01-09T14:09:34.628Z,36.66
2024-01-09T14:12:37.619Z,36.60
2024-01-09T14:15:40.513Z,37.16
2024-01-09T14:18:45.353Z,36.85
2024-01-09T14:21:49.173Z,36.82
2024-01-09T14:24:53.645Z,36.74
2024-01-09T14:27:56.655Z,36.56
2024-01-09T14:30:59.191Z,36.85
2024-01-09T14:34:01.979Z,36.48
2024-01-09T14:37:04.992Z,36.79
2024-01-09T14:40:11.445Z,36.77
2024-01-09T14:43:14.573Z,37.10
2024-01-09T14:46:18.319Z,37.67
2024-01-09T14:49:21.286Z,37.74
2024-01-09T14:52:24.249Z,38.04
2024-01-09T14:55:30.015Z,38.68
2024-01-09T14:58:35.580Z,39.07
2024-01-09T15:01:40.761Z,38.86
2024-01-09T15:04:45.588Z,39.03
2024-01-09T15:07:48.572Z,39.20
2024-01-09T15:10:51.428Z,39.33
2024-01-09T15:13:53.865Z,39.58
2024-01-09T15:16:58.318Z,39.67
2024-01-09T15:20:00.857Z,40.20
2024-01-09T15:23:05.323Z,40.68
2024-01-09T15:26:08.579Z,40.87
2024-01-09T15:29:11.490Z,41.33
2024-01-09T15:32:14.105Z,41.55
2024-01-09T15:35:17.668Z,42.06
2024-01-09T15:38:20.599Z,42.15
2024-01-09T15:41:23.303Z,42.12
2024-01-09T15:44:25.706Z,42.00
2024-01-09T15:47:29.773Z,42.17
2024-01-09T15:50:32.333Z,42.33
2024-01-09T15:53:35.408Z,42.66
2024-01-09T15:56:38.318Z,42.74
2024-01-09T15:59:41.161Z,43.15
2024-01-09T16:02:52.023Z,43.47
2024-01-09T16:05:54.998Z,43.46
2024-01-09T16:08:57.539Z,43.83
2024-01-09T16:12:00.866Z,44.08
2024-01-09T16:15:03.776Z,44.63
2024-01-09T16:18:07.224Z,44.93
2024-01-09T16:21:09.813Z,45.05
2024-01-09T16:24:13.694Z,45.39
2024-01-09T16:27:16.850Z,44.99
2024-01-09T16:30:19.768Z,45.25
2024-01-09T16:33:24.946Z,45.79
2024-01-09T16:36:29.951Z,45.98
2024-01-09T16:39:32.692Z,46.13
2024-01-09T16:42:35.681Z,46.25
2024-01-09T16:45:41.588Z,46.46
2024-01-09T16:48:51.030Z,46.75
2024-01-09T16:51:53.713Z,46.32
2024-01-09T16:54:56.859Z,46.30
2024-01-09T16:58:02.418Z,46.26
2024-01-09T17:01:05.860Z,46.44
2024-01-09T17:04:08.404Z,46.16
2024-01-09T17:07:11.839Z,46.22
2024-01-09T17:10:14.666Z,45.77
2024-01-09T17:13:18.010Z,46.05
2024-01-09T17:16:28.570Z,45.51
2024-01-09T17:19:32.593Z,45.43
2024-01-09T17:22:39.997Z,45.31
2024-01-09T17:25:42.878Z,44.31
2024-01-09T17:28:46.278Z,44.85
2024-01-09T17:31:49.585Z,44.73
2024-01-09T17:34:53.219Z,44.40
2024-01-09T17:37:56.290Z,44.37
2024-01-09T17:40:59.040Z,43.90
2024-01-09T17:44:02.060Z,43.51
2024-01-09T17:47:04.860Z,43.17
2024-01-09T17:50:08.447Z,43.17
2024-01-09T17:53:11.541Z,42.83
2024-01-09T17:56:15.341Z,42.89
2024-01-09T17:59:18.030Z,42.82
2024-01-09T18:02:21.038Z,42.66
2024-01-09T18:05:25.169Z,42.68
2024-01-09T18:08:27.754Z,42.63
2024-01-09T18:11:35.530Z,42.54
2024-01-09T18:14:38.507Z,42.35
2024-01-09T18:17:45.815Z,41.81
2024-01-09T18:20:48.639Z,42.08
2024-01-09T18:23:51.965Z,41.63
2024-01-09T18:26:57.025Z,41.20
2024-01-09T18:30:01.909Z,41.01
2024-01-09T18:33:05.647Z,41.37
2024-01-09T18:36:08.629Z,41.83
2024-01-09T18:39:14.163Z,41.70
2024-01-09T18:42:17.541Z,41.37
2024-01-09T18:45:20.349Z,41.80
2024-01-09T18:48:23.292Z,41.82
2024-01-09T18:51:26.166Z,41.74
2024-01-09T18:54:28.991Z,41.28
2024-01-09T18:57:31.465Z,41.76
2024-01-09T19:00:34.654Z,41.17
2024-01-09T19:03:37.490Z,41.45
2024-01-09T19:06:42.528Z,40.65
2024-01-09T19:09:48.475Z,40.79
2024-01-09T19:12:51.893Z,40.91
2024-01-09T19:15:55.574Z,44.46
2024-01-09T19:18:59.154Z,40.45
2024-01-09T19:22:01.713Z,40.52
2024-01-09T19:25:06.136Z,41.09
2024-01-09T19:28:08.822Z,40.72
2024-01-09T19:31:11.540Z,41.19
2024-01-09T19:34:14.580Z,41.11
2024-01-09T19:37:18.838Z,41.21
2024-01-09T19:40:21.517Z,41.60
2024-01-09T19:43:27.206Z,41.99
2024-01-09T19:46:40.799Z,41.63
2024-01-09T19:49:43.824Z,41.98
2024-01-09T19:52:46.393Z,41.53
2024-01-09T19:55:50.745Z,41.51
2024-01-09T19:58:53.493Z,41.81
2024-01-09T20:01:56.697Z,41.89
2024-01-09T20:05:03.571Z,41.92
2024-01-09T20:08:09.227Z,41.82
2024-01-09T20:11:26.723Z,42.14
2024-01-09T20:14:33.161Z,42.27
2024-01-09T20:17:36.244Z,42.64
2024-01-09T20:20:38.670Z,41.73
2024-01-09T20:23:41.971Z,41.90
2024-01-09T20:26:49.951Z,41.89
2024-01-09T20:29:52.858Z,42.50
2024-01-09T20:32:55.709Z,42.39
2024-01-09T20:36:00.521Z,42.48
2024-01-09T20:39:09.475Z,42.47
2024-01-09T20:42:13.276Z,42.54
2024-01-09T20:45:16.687Z,42.16
2024-01-09T20:48:19.436Z,42.90
2024-01-09T20:51:22.167Z,42.36
2024-01-09T20:54:25.493Z,42.54
2024-01-09T20:57:29.720Z,42.01
2024-01-09T21:00:32.674Z,45.52
2024-01-09T21:03:35.418Z,43.73
2024-01-09T21:06:39.559Z,41.62
2024-01-09T21:09:44.089Z,50.56
2024-01-09T21:12:46.897Z,44.25
2024-01-09T21:15:51.220Z,41.75
2024-01-09T21:18:54.137Z,41.52
2024-01-09T21:21:56.813Z,41.81
2024-01-09T21:24:59.776Z,42.71
2024-01-09T21:28:02.973Z,43.23
2024-01-09T21:31:06.462Z,49.74
2024-01-09T21:34:09.541Z,48.10
2024-01-09T21:37:12.157Z,48.34
2024-01-09T21:40:15.417Z,48.16
2024-01-09T21:43:18.136Z,46.50
2024-01-09T21:46:20.520Z,49.87
2024-01-09T21:49:23.235Z,52.68
2024-01-09T21:52:25.899Z,52.92
2024-01-09T21:55:28.653Z,57.97
2024-01-09T21:58:33.251Z,54.20
2024-01-09T22:01:37.237Z,49.70
2024-01-09T22:04:40.369Z,55.48
2024-01-09T22:07:42.948Z,57.94
2024-01-09T22:10:46.449Z,60.84
2024-01-09T22:13:49.226Z,56.05
2024-01-09T22:16:54.794Z,54.18
2024-01-09T22:19:57.432Z,58.66
2024-01-09T22:23:00.242Z,57.17
2024-01-09T22:26:02.930Z,60.08
2024-01-09T22:29:05.794Z,53.52
2024-01-09T22:32:08.399Z,55.22
2024-01-09T22:35:12.361Z,53.51
2024-01-09T22:38:15.431Z,62.92
2024-01-09T22:41:18.314Z,66.21
2024-01-09T22:44:20.691Z,69.94
2024-01-09T22:47:23.609Z,71.97
2024-01-09T22:50:26.513Z,63.85
2024-01-09T22:53:29.324Z,60.84
2024-01-09T22:56:31.804Z,67.47
2024-01-09T22:59:34.877Z,59.67
2024-01-09T23:02:37.262Z,60.84
2024-01-09T23:05:40.102Z,65.14
2024-01-09T23:08:42.544Z,68.30
2024-01-09T23:11:45.267Z,67.37
2024-01-09T23:14:47.783Z,66.66
2024-01-09T23:17:50.515Z,67.00
2024-01-09T23:20:53.014Z,67.06
2024-01-09T23:23:55.646Z,67.14
2024-01-09T23:26:58.496Z,68.76
2024-01-09T23:30:01.432Z,72.49
2024-01-09T23:33:04.215Z,74.69
2024-01-09T23:36:08.957Z,67.88
2024-01-09T23:39:11.420Z,66.00
2024-01-09T23:42:14.230Z,66.99
2024-01-09T23:45:16.838Z,67.51
2024-01-09T23:48:20.171Z,67.36
2024-01-09T23:51:24.485Z,72.02
2024-01-09T23:54:28.163Z,71.84
2024-01-09T23:57:30.543Z,72.52
